<?xml version="1.0" encoding="UTF-8" standalone="no" ?>
<gpx xmlns="http://www.topografix.com/GPX/1/1" xmlns:xsi="http://www.w3.org/2001/XMLSchema-instance" xsi:schemaLocation="http://www.topografix.com/GPX/1/1 http://www.topografix.com/GPX/1/1/gpx.xsd" version="1.1" creator="VisuGPX - https://www.visugpx.com">
  <metadata>
    <name>12582501-Préaux-court</name>
  </metadata>
  <trk>
    <name><![CDATA[12582501-Préaux-court]]></name>
    <trkseg>
      <trkpt lat="45.13716" lon="4.73325">
        <ele>435</ele>
        <time>2021-02-22T17:05:32Z</time>
      </trkpt>
      <trkpt lat="45.13704" lon="4.7324">
        <ele>435</ele>
        <time>2021-02-22T17:06:21Z</time>
      </trkpt>
      <trkpt lat="45.13601" lon="4.73064">
        <ele>442</ele>
        <time>2021-02-22T17:08:30Z</time>
      </trkpt>
      <trkpt lat="45.13556" lon="4.73055">
        <ele>444</ele>
        <time>2021-02-22T17:09:07Z</time>
      </trkpt>
      <trkpt lat="45.1344" lon="4.7321">
        <ele>455</ele>
        <time>2021-02-22T17:11:14Z</time>
      </trkpt>
      <trkpt lat="45.13389" lon="4.73367">
        <ele>457</ele>
        <time>2021-02-22T17:12:52Z</time>
      </trkpt>
      <trkpt lat="45.13515" lon="4.73477">
        <ele>451</ele>
        <time>2021-02-22T17:14:50Z</time>
      </trkpt>
      <trkpt lat="45.1347" lon="4.73598">
        <ele>448</ele>
        <time>2021-02-22T17:16:08Z</time>
      </trkpt>
      <trkpt lat="45.13348" lon="4.73768">
        <ele>446</ele>
        <time>2021-02-22T17:18:24Z</time>
      </trkpt>
      <trkpt lat="45.1323" lon="4.73874">
        <ele>444</ele>
        <time>2021-02-22T17:20:16Z</time>
      </trkpt>
      <trkpt lat="45.13256" lon="4.74041">
        <ele>435</ele>
        <time>2021-02-22T17:21:53Z</time>
      </trkpt>
      <trkpt lat="45.13303" lon="4.74093">
        <ele>433</ele>
        <time>2021-02-22T17:22:41Z</time>
      </trkpt>
      <trkpt lat="45.13391" lon="4.74111">
        <ele>434</ele>
        <time>2021-02-22T17:23:52Z</time>
      </trkpt>
      <trkpt lat="45.13447" lon="4.74062">
        <ele>431</ele>
        <time>2021-02-22T17:24:45Z</time>
      </trkpt>
      <trkpt lat="45.13599" lon="4.74059">
        <ele>420</ele>
        <time>2021-02-22T17:26:46Z</time>
      </trkpt>
      <trkpt lat="45.13633" lon="4.74008">
        <ele>421</ele>
        <time>2021-02-22T17:27:26Z</time>
      </trkpt>
      <trkpt lat="45.13721" lon="4.73989">
        <ele>420</ele>
        <time>2021-02-22T17:28:37Z</time>
      </trkpt>
      <trkpt lat="45.13828" lon="4.73813">
        <ele>426</ele>
        <time>2021-02-22T17:30:48Z</time>
      </trkpt>
      <trkpt lat="45.13905" lon="4.73738">
        <ele>427</ele>
        <time>2021-02-22T17:32:03Z</time>
      </trkpt>
      <trkpt lat="45.13879" lon="4.73634">
        <ele>431</ele>
        <time>2021-02-22T17:33:06Z</time>
      </trkpt>
      <trkpt lat="45.13926" lon="4.73334">
        <ele>430</ele>
        <time>2021-02-22T17:35:59Z</time>
      </trkpt>
      <trkpt lat="45.13988" lon="4.73167">
        <ele>422</ele>
        <time>2021-02-22T17:37:46Z</time>
      </trkpt>
      <trkpt lat="45.14127" lon="4.73043">
        <ele>407</ele>
        <time>2021-02-22T17:39:57Z</time>
      </trkpt>
      <trkpt lat="45.14207" lon="4.73091">
        <ele>407</ele>
        <time>2021-02-22T17:41:07Z</time>
      </trkpt>
      <trkpt lat="45.14279" lon="4.73182">
        <ele>401</ele>
        <time>2021-02-22T17:42:24Z</time>
      </trkpt>
      <trkpt lat="45.14363" lon="4.73112">
        <ele>400</ele>
        <time>2021-02-22T17:43:42Z</time>
      </trkpt>
      <trkpt lat="45.14335" lon="4.73027">
        <ele>398</ele>
        <time>2021-02-22T17:44:35Z</time>
      </trkpt>
      <trkpt lat="45.14408" lon="4.73067">
        <ele>406</ele>
        <time>2021-02-22T17:45:38Z</time>
      </trkpt>
      <trkpt lat="45.14466" lon="4.73067">
        <ele>412</ele>
        <time>2021-02-22T17:46:24Z</time>
      </trkpt>
      <trkpt lat="45.14433" lon="4.72809">
        <ele>414</ele>
        <time>2021-02-22T17:48:52Z</time>
      </trkpt>
      <trkpt lat="45.14438" lon="4.72678">
        <ele>422</ele>
        <time>2021-02-22T17:50:06Z</time>
      </trkpt>
      <trkpt lat="45.14354" lon="4.72578">
        <ele>422</ele>
        <time>2021-02-22T17:51:34Z</time>
      </trkpt>
      <trkpt lat="45.14371" lon="4.72384">
        <ele>422</ele>
        <time>2021-02-22T17:53:24Z</time>
      </trkpt>
      <trkpt lat="45.14389" lon="4.72087">
        <ele>429</ele>
        <time>2021-02-22T17:56:13Z</time>
      </trkpt>
      <trkpt lat="45.14406" lon="4.71965">
        <ele>432</ele>
        <time>2021-02-22T17:57:23Z</time>
      </trkpt>
      <trkpt lat="45.14147" lon="4.71659">
        <ele>438</ele>
        <time>2021-02-22T18:01:53Z</time>
      </trkpt>
      <trkpt lat="45.14256" lon="4.71547">
        <ele>445</ele>
        <time>2021-02-22T18:03:41Z</time>
      </trkpt>
      <trkpt lat="45.14359" lon="4.71207">
        <ele>454</ele>
        <time>2021-02-22T18:07:10Z</time>
      </trkpt>
      <trkpt lat="45.14455" lon="4.711">
        <ele>460</ele>
        <time>2021-02-22T18:08:48Z</time>
      </trkpt>
      <trkpt lat="45.14468" lon="4.71">
        <ele>463</ele>
        <time>2021-02-22T18:09:45Z</time>
      </trkpt>
      <trkpt lat="45.14511" lon="4.70876">
        <ele>468</ele>
        <time>2021-02-22T18:11:03Z</time>
      </trkpt>
      <trkpt lat="45.14609" lon="4.70676">
        <ele>472</ele>
        <time>2021-02-22T18:13:21Z</time>
      </trkpt>
      <trkpt lat="45.1468" lon="4.70627">
        <ele>472</ele>
        <time>2021-02-22T18:14:24Z</time>
      </trkpt>
      <trkpt lat="45.14665" lon="4.70594">
        <ele>473</ele>
        <time>2021-02-22T18:14:46Z</time>
      </trkpt>
      <trkpt lat="45.14568" lon="4.70506">
        <ele>475</ele>
        <time>2021-02-22T18:16:18Z</time>
      </trkpt>
      <trkpt lat="45.14451" lon="4.70433">
        <ele>477</ele>
        <time>2021-02-22T18:18:00Z</time>
      </trkpt>
      <trkpt lat="45.14318" lon="4.70369">
        <ele>482</ele>
        <time>2021-02-22T18:19:53Z</time>
      </trkpt>
      <trkpt lat="45.1426" lon="4.70287">
        <ele>486</ele>
        <time>2021-02-22T18:20:58Z</time>
      </trkpt>
      <trkpt lat="45.14085" lon="4.70002">
        <ele>511</ele>
        <time>2021-02-22T18:24:32Z</time>
      </trkpt>
      <trkpt lat="45.13918" lon="4.69783">
        <ele>507</ele>
        <time>2021-02-22T18:27:34Z</time>
      </trkpt>
      <trkpt lat="45.13731" lon="4.69623">
        <ele>489</ele>
        <time>2021-02-22T18:30:29Z</time>
      </trkpt>
      <trkpt lat="45.13545" lon="4.69471">
        <ele>483</ele>
        <time>2021-02-22T18:33:21Z</time>
      </trkpt>
      <trkpt lat="45.13492" lon="4.69374">
        <ele>487</ele>
        <time>2021-02-22T18:34:30Z</time>
      </trkpt>
      <trkpt lat="45.13494" lon="4.69246">
        <ele>496</ele>
        <time>2021-02-22T18:35:42Z</time>
      </trkpt>
      <trkpt lat="45.13577" lon="4.69234">
        <ele>503</ele>
        <time>2021-02-22T18:36:49Z</time>
      </trkpt>
      <trkpt lat="45.13856" lon="4.69195">
        <ele>525</ele>
        <time>2021-02-22T18:40:34Z</time>
      </trkpt>
      <trkpt lat="45.13978" lon="4.69213">
        <ele>532</ele>
        <time>2021-02-22T18:42:12Z</time>
      </trkpt>
      <trkpt lat="45.14046" lon="4.69192">
        <ele>542</ele>
        <time>2021-02-22T18:43:08Z</time>
      </trkpt>
      <trkpt lat="45.14025" lon="4.69143">
        <ele>545</ele>
        <time>2021-02-22T18:43:40Z</time>
      </trkpt>
      <trkpt lat="45.14181" lon="4.69212">
        <ele>543</ele>
        <time>2021-02-22T18:45:51Z</time>
      </trkpt>
      <trkpt lat="45.14296" lon="4.69288">
        <ele>528</ele>
        <time>2021-02-22T18:47:32Z</time>
      </trkpt>
      <trkpt lat="45.14503" lon="4.6938">
        <ele>492</ele>
        <time>2021-02-22T18:50:26Z</time>
      </trkpt>
      <trkpt lat="45.14707" lon="4.69327">
        <ele>468</ele>
        <time>2021-02-22T18:53:12Z</time>
      </trkpt>
      <trkpt lat="45.14626" lon="4.69181">
        <ele>467</ele>
        <time>2021-02-22T18:54:57Z</time>
      </trkpt>
      <trkpt lat="45.14599" lon="4.68977">
        <ele>459</ele>
        <time>2021-02-22T18:56:54Z</time>
      </trkpt>
      <trkpt lat="45.14545" lon="4.68903">
        <ele>457</ele>
        <time>2021-02-22T18:57:54Z</time>
      </trkpt>
      <trkpt lat="45.14494" lon="4.6873">
        <ele>446</ele>
        <time>2021-02-22T18:59:40Z</time>
      </trkpt>
      <trkpt lat="45.14498" lon="4.68661">
        <ele>436</ele>
        <time>2021-02-22T19:00:19Z</time>
      </trkpt>
      <trkpt lat="45.14475" lon="4.68597">
        <ele>431</ele>
        <time>2021-02-22T19:01:00Z</time>
      </trkpt>
      <trkpt lat="45.14464" lon="4.685">
        <ele>419</ele>
        <time>2021-02-22T19:01:55Z</time>
      </trkpt>
      <trkpt lat="45.14412" lon="4.68339">
        <ele>405</ele>
        <time>2021-02-22T19:03:35Z</time>
      </trkpt>
      <trkpt lat="45.14469" lon="4.6837">
        <ele>396</ele>
        <time>2021-02-22T19:04:24Z</time>
      </trkpt>
      <trkpt lat="45.14457" lon="4.68286">
        <ele>391</ele>
        <time>2021-02-22T19:05:13Z</time>
      </trkpt>
      <trkpt lat="45.14448" lon="4.68178">
        <ele>389</ele>
        <time>2021-02-22T19:06:14Z</time>
      </trkpt>
      <trkpt lat="45.14484" lon="4.68109">
        <ele>391</ele>
        <time>2021-02-22T19:07:03Z</time>
      </trkpt>
      <trkpt lat="45.14538" lon="4.68171">
        <ele>396</ele>
        <time>2021-02-22T19:07:58Z</time>
      </trkpt>
      <trkpt lat="45.14525" lon="4.67908">
        <ele>426</ele>
        <time>2021-02-22T19:10:27Z</time>
      </trkpt>
      <trkpt lat="45.14475" lon="4.67872">
        <ele>421</ele>
        <time>2021-02-22T19:11:12Z</time>
      </trkpt>
      <trkpt lat="45.14547" lon="4.67808">
        <ele>444</ele>
        <time>2021-02-22T19:12:20Z</time>
      </trkpt>
      <trkpt lat="45.1464" lon="4.67734">
        <ele>463</ele>
        <time>2021-02-22T19:13:46Z</time>
      </trkpt>
      <trkpt lat="45.14687" lon="4.67852">
        <ele>460</ele>
        <time>2021-02-22T19:15:02Z</time>
      </trkpt>
      <trkpt lat="45.1468" lon="4.67928">
        <ele>456</ele>
        <time>2021-02-22T19:15:45Z</time>
      </trkpt>
      <trkpt lat="45.14797" lon="4.68143">
        <ele>450</ele>
        <time>2021-02-22T19:18:19Z</time>
      </trkpt>
      <trkpt lat="45.14919" lon="4.68209">
        <ele>448</ele>
        <time>2021-02-22T19:20:03Z</time>
      </trkpt>
      <trkpt lat="45.14982" lon="4.68194">
        <ele>445</ele>
        <time>2021-02-22T19:20:54Z</time>
      </trkpt>
      <trkpt lat="45.14993" lon="4.68092">
        <ele>447</ele>
        <time>2021-02-22T19:21:53Z</time>
      </trkpt>
      <trkpt lat="45.15015" lon="4.67913">
        <ele>437</ele>
        <time>2021-02-22T19:23:35Z</time>
      </trkpt>
      <trkpt lat="45.15024" lon="4.67742">
        <ele>439</ele>
        <time>2021-02-22T19:25:12Z</time>
      </trkpt>
      <trkpt lat="45.15043" lon="4.67701">
        <ele>434</ele>
        <time>2021-02-22T19:25:40Z</time>
      </trkpt>
      <trkpt lat="45.14973" lon="4.67612">
        <ele>441</ele>
        <time>2021-02-22T19:26:55Z</time>
      </trkpt>
      <trkpt lat="45.14867" lon="4.67474">
        <ele>445</ele>
        <time>2021-02-22T19:28:50Z</time>
      </trkpt>
      <trkpt lat="45.14766" lon="4.67382">
        <ele>453</ele>
        <time>2021-02-22T19:30:26Z</time>
      </trkpt>
      <trkpt lat="45.14683" lon="4.67272">
        <ele>455</ele>
        <time>2021-02-22T19:31:57Z</time>
      </trkpt>
      <trkpt lat="45.14619" lon="4.67127">
        <ele>460</ele>
        <time>2021-02-22T19:33:34Z</time>
      </trkpt>
      <trkpt lat="45.1461" lon="4.66989">
        <ele>462</ele>
        <time>2021-02-22T19:34:52Z</time>
      </trkpt>
      <trkpt lat="45.14565" lon="4.66892">
        <ele>472</ele>
        <time>2021-02-22T19:35:58Z</time>
      </trkpt>
      <trkpt lat="45.14624" lon="4.66739">
        <ele>468</ele>
        <time>2021-02-22T19:37:36Z</time>
      </trkpt>
      <trkpt lat="45.14617" lon="4.66525">
        <ele>473</ele>
        <time>2021-02-22T19:39:37Z</time>
      </trkpt>
      <trkpt lat="45.1448" lon="4.66515">
        <ele>494</ele>
        <time>2021-02-22T19:41:27Z</time>
      </trkpt>
      <trkpt lat="45.14394" lon="4.66509">
        <ele>507</ele>
        <time>2021-02-22T19:42:36Z</time>
      </trkpt>
      <trkpt lat="45.14381" lon="4.66464">
        <ele>509</ele>
        <time>2021-02-22T19:43:03Z</time>
      </trkpt>
      <trkpt lat="45.14329" lon="4.66476">
        <ele>514</ele>
        <time>2021-02-22T19:43:46Z</time>
      </trkpt>
      <trkpt lat="45.14309" lon="4.66423">
        <ele>515</ele>
        <time>2021-02-22T19:44:20Z</time>
      </trkpt>
      <trkpt lat="45.14269" lon="4.66407">
        <ele>515</ele>
        <time>2021-02-22T19:44:53Z</time>
      </trkpt>
      <trkpt lat="45.14192" lon="4.66331">
        <ele>516</ele>
        <time>2021-02-22T19:46:08Z</time>
      </trkpt>
      <trkpt lat="45.14143" lon="4.66415">
        <ele>516</ele>
        <time>2021-02-22T19:47:10Z</time>
      </trkpt>
      <trkpt lat="45.14095" lon="4.66509">
        <ele>509</ele>
        <time>2021-02-22T19:48:15Z</time>
      </trkpt>
      <trkpt lat="45.14057" lon="4.66545">
        <ele>505</ele>
        <time>2021-02-22T19:48:52Z</time>
      </trkpt>
      <trkpt lat="45.13972" lon="4.66581">
        <ele>497</ele>
        <time>2021-02-22T19:50:03Z</time>
      </trkpt>
      <trkpt lat="45.13888" lon="4.66617">
        <ele>492</ele>
        <time>2021-02-22T19:51:13Z</time>
      </trkpt>
      <trkpt lat="45.13852" lon="4.66619">
        <ele>491</ele>
        <time>2021-02-22T19:51:42Z</time>
      </trkpt>
      <trkpt lat="45.13805" lon="4.66706">
        <ele>480</ele>
        <time>2021-02-22T19:52:44Z</time>
      </trkpt>
      <trkpt lat="45.13814" lon="4.6679">
        <ele>470</ele>
        <time>2021-02-22T19:53:32Z</time>
      </trkpt>
      <trkpt lat="45.13708" lon="4.66793">
        <ele>458</ele>
        <time>2021-02-22T19:54:57Z</time>
      </trkpt>
      <trkpt lat="45.13638" lon="4.66777">
        <ele>458</ele>
        <time>2021-02-22T19:55:53Z</time>
      </trkpt>
      <trkpt lat="45.13526" lon="4.66828">
        <ele>439</ele>
        <time>2021-02-22T19:57:28Z</time>
      </trkpt>
      <trkpt lat="45.13378" lon="4.6667">
        <ele>446</ele>
        <time>2021-02-22T19:59:56Z</time>
      </trkpt>
      <trkpt lat="45.13351" lon="4.66706">
        <ele>444</ele>
        <time>2021-02-22T20:00:26Z</time>
      </trkpt>
      <trkpt lat="45.13369" lon="4.66823">
        <ele>450</ele>
        <time>2021-02-22T20:01:33Z</time>
      </trkpt>
      <trkpt lat="45.13405" lon="4.66874">
        <ele>449</ele>
        <time>2021-02-22T20:02:14Z</time>
      </trkpt>
      <trkpt lat="45.13405" lon="4.66913">
        <ele>455</ele>
        <time>2021-02-22T20:02:36Z</time>
      </trkpt>
      <trkpt lat="45.13515" lon="4.67063">
        <ele>460</ele>
        <time>2021-02-22T20:04:38Z</time>
      </trkpt>
      <trkpt lat="45.13533" lon="4.67165">
        <ele>458</ele>
        <time>2021-02-22T20:05:38Z</time>
      </trkpt>
      <trkpt lat="45.13506" lon="4.67196">
        <ele>466</ele>
        <time>2021-02-22T20:06:05Z</time>
      </trkpt>
      <trkpt lat="45.1345" lon="4.67201">
        <ele>476</ele>
        <time>2021-02-22T20:06:50Z</time>
      </trkpt>
      <trkpt lat="45.13341" lon="4.67135">
        <ele>487</ele>
        <time>2021-02-22T20:08:25Z</time>
      </trkpt>
      <trkpt lat="45.13292" lon="4.67196">
        <ele>498</ele>
        <time>2021-02-22T20:09:17Z</time>
      </trkpt>
      <trkpt lat="45.13215" lon="4.6738">
        <ele>517</ele>
        <time>2021-02-22T20:11:18Z</time>
      </trkpt>
      <trkpt lat="45.13173" lon="4.67481">
        <ele>518</ele>
        <time>2021-02-22T20:12:25Z</time>
      </trkpt>
      <trkpt lat="45.13112" lon="4.6761">
        <ele>519</ele>
        <time>2021-02-22T20:13:52Z</time>
      </trkpt>
      <trkpt lat="45.1316" lon="4.67644">
        <ele>521</ele>
        <time>2021-02-22T20:14:35Z</time>
      </trkpt>
      <trkpt lat="45.13253" lon="4.67642">
        <ele>519</ele>
        <time>2021-02-22T20:15:50Z</time>
      </trkpt>
      <trkpt lat="45.13285" lon="4.67732">
        <ele>527</ele>
        <time>2021-02-22T20:16:47Z</time>
      </trkpt>
      <trkpt lat="45.13304" lon="4.67831">
        <ele>541</ele>
        <time>2021-02-22T20:17:45Z</time>
      </trkpt>
      <trkpt lat="45.134" lon="4.67932">
        <ele>558</ele>
        <time>2021-02-22T20:19:20Z</time>
      </trkpt>
      <trkpt lat="45.1345" lon="4.67912">
        <ele>549</ele>
        <time>2021-02-22T20:20:02Z</time>
      </trkpt>
      <trkpt lat="45.13453" lon="4.68011">
        <ele>564</ele>
        <time>2021-02-22T20:20:58Z</time>
      </trkpt>
      <trkpt lat="45.13478" lon="4.6817">
        <ele>570</ele>
        <time>2021-02-22T20:22:30Z</time>
      </trkpt>
      <trkpt lat="45.13377" lon="4.6808">
        <ele>589</ele>
        <time>2021-02-22T20:24:05Z</time>
      </trkpt>
      <trkpt lat="45.13339" lon="4.68018">
        <ele>590</ele>
        <time>2021-02-22T20:24:52Z</time>
      </trkpt>
      <trkpt lat="45.13285" lon="4.67983">
        <ele>589</ele>
        <time>2021-02-22T20:25:39Z</time>
      </trkpt>
      <trkpt lat="45.13204" lon="4.67988">
        <ele>591</ele>
        <time>2021-02-22T20:26:44Z</time>
      </trkpt>
      <trkpt lat="45.13156" lon="4.68056">
        <ele>601</ele>
        <time>2021-02-22T20:27:39Z</time>
      </trkpt>
      <trkpt lat="45.13166" lon="4.68076">
        <ele>605</ele>
        <time>2021-02-22T20:27:52Z</time>
      </trkpt>
      <trkpt lat="45.13127" lon="4.68093">
        <ele>608</ele>
        <time>2021-02-22T20:28:25Z</time>
      </trkpt>
      <trkpt lat="45.13104" lon="4.68146">
        <ele>614</ele>
        <time>2021-02-22T20:29:00Z</time>
      </trkpt>
      <trkpt lat="45.13091" lon="4.68224">
        <ele>618</ele>
        <time>2021-02-22T20:29:46Z</time>
      </trkpt>
      <trkpt lat="45.12995" lon="4.68249">
        <ele>628</ele>
        <time>2021-02-22T20:31:04Z</time>
      </trkpt>
      <trkpt lat="45.12917" lon="4.68217">
        <ele>636</ele>
        <time>2021-02-22T20:32:09Z</time>
      </trkpt>
      <trkpt lat="45.12783" lon="4.68241">
        <ele>653</ele>
        <time>2021-02-22T20:33:57Z</time>
      </trkpt>
      <trkpt lat="45.12776" lon="4.682">
        <ele>659</ele>
        <time>2021-02-22T20:34:21Z</time>
      </trkpt>
      <trkpt lat="45.12727" lon="4.68206">
        <ele>668</ele>
        <time>2021-02-22T20:35:00Z</time>
      </trkpt>
      <trkpt lat="45.12667" lon="4.68249">
        <ele>675</ele>
        <time>2021-02-22T20:35:54Z</time>
      </trkpt>
      <trkpt lat="45.12597" lon="4.68258">
        <ele>690</ele>
        <time>2021-02-22T20:36:50Z</time>
      </trkpt>
      <trkpt lat="45.12553" lon="4.68329">
        <ele>686</ele>
        <time>2021-02-22T20:37:44Z</time>
      </trkpt>
      <trkpt lat="45.12493" lon="4.68378">
        <ele>690</ele>
        <time>2021-02-22T20:38:39Z</time>
      </trkpt>
      <trkpt lat="45.12372" lon="4.68395">
        <ele>700</ele>
        <time>2021-02-22T20:40:16Z</time>
      </trkpt>
      <trkpt lat="45.12344" lon="4.68361">
        <ele>712</ele>
        <time>2021-02-22T20:40:46Z</time>
      </trkpt>
      <trkpt lat="45.12269" lon="4.68354">
        <ele>717</ele>
        <time>2021-02-22T20:41:46Z</time>
      </trkpt>
      <trkpt lat="45.1214" lon="4.68432">
        <ele>713</ele>
        <time>2021-02-22T20:43:38Z</time>
      </trkpt>
      <trkpt lat="45.12113" lon="4.68631">
        <ele>709</ele>
        <time>2021-02-22T20:45:33Z</time>
      </trkpt>
      <trkpt lat="45.12113" lon="4.68693">
        <ele>701</ele>
        <time>2021-02-22T20:46:08Z</time>
      </trkpt>
      <trkpt lat="45.12051" lon="4.68805">
        <ele>686</ele>
        <time>2021-02-22T20:47:28Z</time>
      </trkpt>
      <trkpt lat="45.11973" lon="4.68812">
        <ele>678</ele>
        <time>2021-02-22T20:48:31Z</time>
      </trkpt>
      <trkpt lat="45.11917" lon="4.68792">
        <ele>670</ele>
        <time>2021-02-22T20:49:17Z</time>
      </trkpt>
      <trkpt lat="45.11908" lon="4.6873">
        <ele>668</ele>
        <time>2021-02-22T20:49:53Z</time>
      </trkpt>
      <trkpt lat="45.11849" lon="4.68788">
        <ele>650</ele>
        <time>2021-02-22T20:50:50Z</time>
      </trkpt>
      <trkpt lat="45.11858" lon="4.68893">
        <ele>643</ele>
        <time>2021-02-22T20:51:50Z</time>
      </trkpt>
      <trkpt lat="45.12072" lon="4.6911">
        <ele>626</ele>
        <time>2021-02-22T20:55:21Z</time>
      </trkpt>
      <trkpt lat="45.12073" lon="4.69144">
        <ele>623</ele>
        <time>2021-02-22T20:55:40Z</time>
      </trkpt>
      <trkpt lat="45.12037" lon="4.69219">
        <ele>617</ele>
        <time>2021-02-22T20:56:31Z</time>
      </trkpt>
      <trkpt lat="45.11977" lon="4.69292">
        <ele>611</ele>
        <time>2021-02-22T20:57:35Z</time>
      </trkpt>
      <trkpt lat="45.11948" lon="4.69183">
        <ele>603</ele>
        <time>2021-02-22T20:58:40Z</time>
      </trkpt>
      <trkpt lat="45.11805" lon="4.69189">
        <ele>584</ele>
        <time>2021-02-22T21:00:35Z</time>
      </trkpt>
      <trkpt lat="45.11716" lon="4.69084">
        <ele>579</ele>
        <time>2021-02-22T21:02:08Z</time>
      </trkpt>
      <trkpt lat="45.11649" lon="4.69048">
        <ele>574</ele>
        <time>2021-02-22T21:03:05Z</time>
      </trkpt>
      <trkpt lat="45.11575" lon="4.6896">
        <ele>570</ele>
        <time>2021-02-22T21:04:22Z</time>
      </trkpt>
      <trkpt lat="45.11516" lon="4.68895">
        <ele>568</ele>
        <time>2021-02-22T21:05:22Z</time>
      </trkpt>
      <trkpt lat="45.11481" lon="4.69022">
        <ele>557</ele>
        <time>2021-02-22T21:06:39Z</time>
      </trkpt>
      <trkpt lat="45.11444" lon="4.69026">
        <ele>554</ele>
        <time>2021-02-22T21:07:09Z</time>
      </trkpt>
      <trkpt lat="45.11312" lon="4.68923">
        <ele>557</ele>
        <time>2021-02-22T21:09:10Z</time>
      </trkpt>
      <trkpt lat="45.11295" lon="4.68992">
        <ele>551</ele>
        <time>2021-02-22T21:09:51Z</time>
      </trkpt>
      <trkpt lat="45.11298" lon="4.69357">
        <ele>532</ele>
        <time>2021-02-22T21:13:17Z</time>
      </trkpt>
      <trkpt lat="45.1128" lon="4.69442">
        <ele>526</ele>
        <time>2021-02-22T21:14:07Z</time>
      </trkpt>
      <trkpt lat="45.11245" lon="4.69666">
        <ele>511</ele>
        <time>2021-02-22T21:16:17Z</time>
      </trkpt>
      <trkpt lat="45.1118" lon="4.69734">
        <ele>503</ele>
        <time>2021-02-22T21:17:22Z</time>
      </trkpt>
      <trkpt lat="45.11204" lon="4.69796">
        <ele>503</ele>
        <time>2021-02-22T21:18:02Z</time>
      </trkpt>
      <trkpt lat="45.11239" lon="4.69949">
        <ele>504</ele>
        <time>2021-02-22T21:19:33Z</time>
      </trkpt>
      <trkpt lat="45.11285" lon="4.7015">
        <ele>505</ele>
        <time>2021-02-22T21:21:32Z</time>
      </trkpt>
      <trkpt lat="45.11206" lon="4.70213">
        <ele>505</ele>
        <time>2021-02-22T21:22:45Z</time>
      </trkpt>
      <trkpt lat="45.11212" lon="4.70275">
        <ele>508</ele>
        <time>2021-02-22T21:23:20Z</time>
      </trkpt>
      <trkpt lat="45.11191" lon="4.70359">
        <ele>510</ele>
        <time>2021-02-22T21:24:10Z</time>
      </trkpt>
      <trkpt lat="45.11225" lon="4.70378">
        <ele>513</ele>
        <time>2021-02-22T21:24:39Z</time>
      </trkpt>
      <trkpt lat="45.11225" lon="4.70492">
        <ele>517</ele>
        <time>2021-02-22T21:25:44Z</time>
      </trkpt>
      <trkpt lat="45.11325" lon="4.70597">
        <ele>527</ele>
        <time>2021-02-22T21:27:24Z</time>
      </trkpt>
      <trkpt lat="45.11371" lon="4.70674">
        <ele>530</ele>
        <time>2021-02-22T21:28:21Z</time>
      </trkpt>
      <trkpt lat="45.112" lon="4.7106">
        <ele>543</ele>
        <time>2021-02-22T21:32:38Z</time>
      </trkpt>
      <trkpt lat="45.11063" lon="4.71457">
        <ele>540</ele>
        <time>2021-02-22T21:36:48Z</time>
      </trkpt>
      <trkpt lat="45.11" lon="4.71457">
        <ele>542</ele>
        <time>2021-02-22T21:37:38Z</time>
      </trkpt>
      <trkpt lat="45.10914" lon="4.71359">
        <ele>552</ele>
        <time>2021-02-22T21:39:07Z</time>
      </trkpt>
      <trkpt lat="45.10824" lon="4.71296">
        <ele>556</ele>
        <time>2021-02-22T21:40:27Z</time>
      </trkpt>
      <trkpt lat="45.10727" lon="4.71226">
        <ele>544</ele>
        <time>2021-02-22T21:41:54Z</time>
      </trkpt>
      <trkpt lat="45.10645" lon="4.71247">
        <ele>539</ele>
        <time>2021-02-22T21:43:01Z</time>
      </trkpt>
      <trkpt lat="45.10632" lon="4.71281">
        <ele>540</ele>
        <time>2021-02-22T21:43:23Z</time>
      </trkpt>
      <trkpt lat="45.10723" lon="4.71356">
        <ele>560</ele>
        <time>2021-02-22T21:44:47Z</time>
      </trkpt>
      <trkpt lat="45.10833" lon="4.71457">
        <ele>559</ele>
        <time>2021-02-22T21:46:32Z</time>
      </trkpt>
      <trkpt lat="45.10918" lon="4.71485">
        <ele>549</ele>
        <time>2021-02-22T21:47:42Z</time>
      </trkpt>
      <trkpt lat="45.10977" lon="4.71472">
        <ele>544</ele>
        <time>2021-02-22T21:48:30Z</time>
      </trkpt>
      <trkpt lat="45.10962" lon="4.71717">
        <ele>530</ele>
        <time>2021-02-22T21:50:49Z</time>
      </trkpt>
      <trkpt lat="45.11038" lon="4.71766">
        <ele>526</ele>
        <time>2021-02-22T21:51:55Z</time>
      </trkpt>
      <trkpt lat="45.11118" lon="4.71863">
        <ele>519</ele>
        <time>2021-02-22T21:53:20Z</time>
      </trkpt>
      <trkpt lat="45.11215" lon="4.71878">
        <ele>515</ele>
        <time>2021-02-22T21:54:38Z</time>
      </trkpt>
      <trkpt lat="45.11433" lon="4.71897">
        <ele>512</ele>
        <time>2021-02-22T21:57:33Z</time>
      </trkpt>
      <trkpt lat="45.11478" lon="4.71869">
        <ele>510</ele>
        <time>2021-02-22T21:58:12Z</time>
      </trkpt>
      <trkpt lat="45.1169" lon="4.71961">
        <ele>510</ele>
        <time>2021-02-22T22:01:10Z</time>
      </trkpt>
      <trkpt lat="45.11702" lon="4.71996">
        <ele>509</ele>
        <time>2021-02-22T22:01:32Z</time>
      </trkpt>
      <trkpt lat="45.11822" lon="4.71953">
        <ele>519</ele>
        <time>2021-02-22T22:03:11Z</time>
      </trkpt>
      <trkpt lat="45.11952" lon="4.72">
        <ele>521</ele>
        <time>2021-02-22T22:04:58Z</time>
      </trkpt>
      <trkpt lat="45.1204" lon="4.72071">
        <ele>512</ele>
        <time>2021-02-22T22:06:19Z</time>
      </trkpt>
      <trkpt lat="45.12216" lon="4.72191">
        <ele>487</ele>
        <time>2021-02-22T22:08:56Z</time>
      </trkpt>
      <trkpt lat="45.12098" lon="4.72365">
        <ele>484</ele>
        <time>2021-02-22T22:11:12Z</time>
      </trkpt>
      <trkpt lat="45.11908" lon="4.72605">
        <ele>494</ele>
        <time>2021-02-22T22:14:36Z</time>
      </trkpt>
      <trkpt lat="45.11984" lon="4.72687">
        <ele>494</ele>
        <time>2021-02-22T22:15:52Z</time>
      </trkpt>
      <trkpt lat="45.1211" lon="4.72713">
        <ele>492</ele>
        <time>2021-02-22T22:17:34Z</time>
      </trkpt>
      <trkpt lat="45.12293" lon="4.72732">
        <ele>487</ele>
        <time>2021-02-22T22:20:01Z</time>
      </trkpt>
      <trkpt lat="45.12426" lon="4.72755">
        <ele>482</ele>
        <time>2021-02-22T22:21:48Z</time>
      </trkpt>
      <trkpt lat="45.12614" lon="4.728">
        <ele>473</ele>
        <time>2021-02-22T22:24:21Z</time>
      </trkpt>
      <trkpt lat="45.12794" lon="4.7276">
        <ele>471</ele>
        <time>2021-02-22T22:26:47Z</time>
      </trkpt>
      <trkpt lat="45.12974" lon="4.72708">
        <ele>466</ele>
        <time>2021-02-22T22:29:14Z</time>
      </trkpt>
      <trkpt lat="45.13089" lon="4.72612">
        <ele>461</ele>
        <time>2021-02-22T22:31:01Z</time>
      </trkpt>
      <trkpt lat="45.13153" lon="4.72579">
        <ele>459</ele>
        <time>2021-02-22T22:31:55Z</time>
      </trkpt>
      <trkpt lat="45.13286" lon="4.72644">
        <ele>446</ele>
        <time>2021-02-22T22:33:48Z</time>
      </trkpt>
      <trkpt lat="45.13292" lon="4.7291">
        <ele>438</ele>
        <time>2021-02-22T22:36:18Z</time>
      </trkpt>
      <trkpt lat="45.13295" lon="4.72972">
        <ele>440</ele>
        <time>2021-02-22T22:36:53Z</time>
      </trkpt>
      <trkpt lat="45.13292" lon="4.72998">
        <ele>441</ele>
        <time>2021-02-22T22:37:08Z</time>
      </trkpt>
      <trkpt lat="45.13436" lon="4.72968">
        <ele>438</ele>
        <time>2021-02-22T22:39:05Z</time>
      </trkpt>
      <trkpt lat="45.13445" lon="4.73037">
        <ele>445</ele>
        <time>2021-02-22T22:39:45Z</time>
      </trkpt>
      <trkpt lat="45.13537" lon="4.73045">
        <ele>444</ele>
        <time>2021-02-22T22:40:58Z</time>
      </trkpt>
      <trkpt lat="45.13604" lon="4.73041">
        <ele>440</ele>
        <time>2021-02-22T22:41:52Z</time>
      </trkpt>
      <trkpt lat="45.13708" lon="4.73212">
        <ele>435</ele>
        <time>2021-02-22T22:44:00Z</time>
      </trkpt>
      <trkpt lat="45.13743" lon="4.73283">
        <ele>432</ele>
        <time>2021-02-22T22:44:48Z</time>
      </trkpt>
    </trkseg>
  </trk>
</gpx>